createdAt,value
2017-06-21T00:00:42.034Z,16.5
2017-06-21T00:02:00.701Z,16.5
2017-06-21T00:03:19.369Z,16.4
2017-06-21T00:04:38.080Z,16.4
2017-06-21T00:05:56.775Z,16.4
2017-06-21T00:07:15.490Z,16.3
2017-06-21T00:08:34.187Z,16.3
2017-06-21T00:09:52.888Z,16.2
2017-06-21T00:11:11.609Z,16.2
2017-06-21T00:12:30.325Z,16.2
2017-06-21T00:13:49.022Z,16.1
2017-06-21T00:15:07.701Z,16.1
2017-06-21T00:16:26.391Z,16
2017-06-21T00:17:45.086Z,16
2017-06-21T00:19:03.828Z,16
2017-06-21T00:20:22.501Z,15.9
2017-06-21T00:21:41.198Z,15.8
2017-06-21T00:22:59.874Z,15.8
2017-06-21T00:24:18.571Z,15.8
2017-06-21T00:25:37.330Z,15.8
2017-06-21T00:26:56.080Z,15.8
2017-06-21T00:28:14.748Z,15.8
2017-06-21T00:29:33.416Z,15.7
2017-06-21T00:30:52.092Z,15.7
2017-06-21T00:32:10.807Z,15.7
2017-06-21T00:33:29.518Z,15.6
2017-06-21T00:34:48.185Z,15.6
2017-06-21T00:36:06.856Z,15.6
2017-06-21T00:37:25.598Z,15.5
2017-06-21T00:38:44.321Z,15.5
2017-06-21T00:40:03.044Z,15.4
2017-06-21T00:41:21.743Z,15.4
2017-06-21T00:42:40.421Z,15.4
2017-06-21T00:43:59.126Z,15.3
2017-06-21T00:45:17.802Z,15.3
2017-06-21T00:46:36.520Z,15.3
2017-06-21T00:47:55.226Z,15.3
2017-06-21T00:49:13.954Z,15.3
2017-06-21T00:50:32.625Z,15.3
2017-06-21T00:51:51.296Z,15.2
2017-06-21T00:53:10.017Z,15.2
2017-06-21T00:54:28.693Z,15.2
2017-06-21T00:55:47.451Z,15.1
2017-06-21T00:57:06.133Z,15.1
2017-06-21T00:58:24.828Z,15.1
2017-06-21T00:59:43.503Z,15.1
2017-06-21T01:01:02.188Z,15.1
2017-06-21T01:02:20.912Z,15.1
2017-06-21T01:03:39.599Z,15.1
2017-06-21T01:04:58.310Z,15.1
2017-06-21T01:06:16.977Z,15.1
2017-06-21T01:07:35.648Z,15
2017-06-21T01:08:54.329Z,15
2017-06-21T01:10:13.007Z,15
2017-06-21T01:11:31.676Z,15
2017-06-21T01:12:50.403Z,15
2017-06-21T01:14:09.133Z,14.9
2017-06-21T01:15:27.846Z,14.9
2017-06-21T01:16:46.558Z,14.8
2017-06-21T01:18:05.230Z,14.8
2017-06-21T01:19:23.963Z,14.8
2017-06-21T01:20:42.638Z,14.7
2017-06-21T01:22:01.307Z,14.7
2017-06-21T01:23:19.981Z,14.7
2017-06-21T01:24:38.681Z,14.7
2017-06-21T01:25:57.433Z,14.7
2017-06-21T01:27:16.096Z,14.6
2017-06-21T01:28:34.781Z,14.6
2017-06-21T01:29:53.459Z,14.5
2017-06-21T01:31:12.172Z,14.5
2017-06-21T01:32:30.896Z,14.5
2017-06-21T01:33:49.605Z,14.5
2017-06-21T01:35:08.308Z,14.5
2017-06-21T01:36:26.982Z,14.4
2017-06-21T01:37:45.682Z,14.4
2017-06-21T01:39:04.361Z,14.4
2017-06-21T01:40:23.055Z,14.3
2017-06-21T01:41:41.753Z,14.3
2017-06-21T01:43:00.428Z,14.3
2017-06-21T01:44:19.163Z,14.3
2017-06-21T01:45:37.867Z,14.2
2017-06-21T01:46:56.556Z,14.2
2017-06-21T01:48:15.243Z,14.2
2017-06-21T01:49:33.977Z,14.1
2017-06-21T01:50:52.673Z,14.1
2017-06-21T01:52:11.344Z,14.1
2017-06-21T01:53:30.020Z,14.1
2017-06-21T01:54:48.695Z,14.1
2017-06-21T01:56:07.399Z,14
2017-06-21T01:57:26.067Z,14
2017-06-21T01:58:44.785Z,14
2017-06-21T02:00:03.500Z,14
2017-06-21T02:01:22.185Z,13.9
2017-06-21T02:02:40.859Z,13.9
2017-06-21T02:03:59.571Z,13.9
2017-06-21T02:05:18.240Z,13.9
2017-06-21T02:06:36.934Z,13.8
2017-06-21T02:07:55.597Z,13.8
2017-06-21T02:09:14.320Z,13.8
2017-06-21T02:10:33.045Z,13.8
2017-06-21T02:11:51.748Z,13.8
2017-06-21T02:13:10.475Z,13.8
2017-06-21T02:14:29.156Z,13.7
2017-06-21T02:15:47.842Z,13.7
2017-06-21T02:17:06.571Z,13.7
2017-06-21T02:18:25.286Z,13.7
2017-06-21T02:19:44.011Z,13.6
2017-06-21T02:21:02.684Z,13.6
2017-06-21T02:22:21.410Z,13.6
2017-06-21T02:23:40.139Z,13.6
2017-06-21T02:24:58.857Z,13.6
2017-06-21T02:26:17.562Z,13.5
2017-06-21T02:27:36.249Z,13.5
2017-06-21T02:28:54.916Z,13.4
2017-06-21T02:30:13.583Z,13.4
2017-06-21T02:31:32.316Z,13.3
2017-06-21T02:32:51.016Z,13.3
2017-06-21T02:34:09.696Z,13.3
2017-06-21T02:35:28.372Z,13.3
2017-06-21T02:36:47.095Z,13.3
2017-06-21T02:38:05.783Z,13.3
2017-06-21T02:39:24.460Z,13.4
2017-06-21T02:40:43.130Z,13.3
2017-06-21T02:42:01.804Z,13.4
2017-06-21T02:43:20.504Z,13.3
2017-06-21T02:44:39.233Z,13.3
2017-06-21T02:45:57.912Z,13.4
2017-06-21T02:47:16.604Z,13.4
2017-06-21T02:48:35.346Z,13.4
2017-06-21T02:49:54.060Z,13.4
2017-06-21T02:51:12.732Z,13.3
2017-06-21T02:52:31.410Z,13.3
2017-06-21T02:53:50.085Z,13.2
2017-06-21T02:55:08.791Z,13.2
2017-06-21T02:56:27.466Z,13.1
2017-06-21T02:57:46.158Z,13.1
2017-06-21T02:59:04.867Z,13.1
2017-06-21T03:00:23.562Z,13.1
2017-06-21T03:01:42.242Z,13.1
2017-06-21T03:03:00.990Z,13.1
2017-06-21T03:04:19.675Z,13.1
2017-06-21T03:05:38.357Z,13.1
2017-06-21T03:06:57.031Z,13.1
2017-06-21T03:08:15.702Z,13.1
2017-06-21T03:09:34.401Z,13.1
2017-06-21T03:10:53.105Z,13.1
2017-06-21T03:12:11.788Z,13.1
2017-06-21T03:13:30.455Z,13.1
2017-06-21T03:14:49.204Z,13.2
2017-06-21T03:16:07.872Z,13.2
2017-06-21T03:17:26.566Z,13.2
2017-06-21T03:18:45.249Z,13.2
2017-06-21T03:20:04.004Z,13.2
2017-06-21T03:21:22.710Z,13.2
2017-06-21T03:22:41.378Z,13.2
2017-06-21T03:24:00.053Z,13.1
2017-06-21T03:25:18.810Z,13.1
2017-06-21T03:26:37.474Z,13.1
2017-06-21T03:27:56.149Z,13.1
2017-06-21T03:29:14.847Z,13
2017-06-21T03:30:33.570Z,13
2017-06-21T03:31:52.244Z,13
2017-06-21T03:33:10.921Z,13
2017-06-21T03:34:29.616Z,13.1
2017-06-21T03:35:48.357Z,13.1
2017-06-21T03:37:07.055Z,13.1
2017-06-21T03:38:25.776Z,13.2
2017-06-21T03:39:44.497Z,13.2
2017-06-21T03:41:03.179Z,13.2
2017-06-21T03:42:21.852Z,13.2
2017-06-21T03:43:40.568Z,13.3
2017-06-21T03:44:59.234Z,13.3
2017-06-21T03:46:17.932Z,13.3
2017-06-21T03:47:36.661Z,13.4
2017-06-21T03:48:55.386Z,13.4
2017-06-21T03:50:14.142Z,13.4
2017-06-21T03:51:32.836Z,13.4
2017-06-21T03:52:51.559Z,13.5
2017-06-21T03:54:10.233Z,13.5
2017-06-21T03:55:28.928Z,13.5
2017-06-21T03:56:47.651Z,13.6
2017-06-21T03:58:06.328Z,13.6
2017-06-21T03:59:25.001Z,13.6
2017-06-21T04:00:43.704Z,13.6
2017-06-21T04:02:02.441Z,13.6
2017-06-21T04:03:21.110Z,13.7
2017-06-21T04:04:39.785Z,13.7
2017-06-21T04:05:58.510Z,13.8
2017-06-21T04:07:17.207Z,13.8
2017-06-21T04:08:35.883Z,13.8
2017-06-21T04:09:54.564Z,13.9
2017-06-21T04:11:13.285Z,13.9
2017-06-21T04:12:31.985Z,13.9
2017-06-21T04:13:50.660Z,14
2017-06-21T04:15:09.326Z,14.1
2017-06-21T04:16:27.991Z,14.1
2017-06-21T04:17:46.714Z,14.2
2017-06-21T04:19:05.384Z,14.2
2017-06-21T04:20:24.117Z,14.2
2017-06-21T04:21:42.864Z,14.3
2017-06-21T04:23:01.594Z,14.3
2017-06-21T04:24:20.323Z,14.3
2017-06-21T04:25:39.068Z,14.4
2017-06-21T04:26:57.794Z,14.4
2017-06-21T04:28:16.476Z,14.5
2017-06-21T04:29:35.174Z,14.5
2017-06-21T04:30:53.868Z,14.5
2017-06-21T04:32:12.559Z,14.5
2017-06-21T04:33:31.254Z,14.6
2017-06-21T04:34:49.926Z,14.6
2017-06-21T04:36:08.621Z,14.7
2017-06-21T04:37:27.382Z,14.7
2017-06-21T04:38:46.104Z,14.8
2017-06-21T04:40:04.826Z,14.8
2017-06-21T04:41:23.502Z,14.9
2017-06-21T04:42:42.176Z,14.9
2017-06-21T04:44:00.913Z,15
2017-06-21T04:45:19.582Z,15
2017-06-21T04:46:38.283Z,15.1
2017-06-21T04:47:56.959Z,15.2
2017-06-21T04:49:15.645Z,15.2
2017-06-21T04:50:34.321Z,15.3
2017-06-21T04:51:52.991Z,15.3
2017-06-21T04:53:11.743Z,15.3
2017-06-21T04:54:30.486Z,15.4
2017-06-21T04:55:49.210Z,15.4
2017-06-21T04:57:07.878Z,15.5
2017-06-21T04:58:26.566Z,15.5
2017-06-21T04:59:45.265Z,15.6
2017-06-21T05:01:04.012Z,15.6
2017-06-21T05:02:22.685Z,15.7
2017-06-21T05:03:41.354Z,15.7
2017-06-21T05:05:00.088Z,15.8
2017-06-21T05:06:18.822Z,15.8
2017-06-21T05:07:37.546Z,15.8
2017-06-21T05:08:56.240Z,15.9
2017-06-21T05:10:14.962Z,15.9
2017-06-21T05:11:33.662Z,16
2017-06-21T05:12:52.412Z,16
2017-06-21T05:14:11.086Z,16
2017-06-21T05:15:29.825Z,16
2017-06-21T05:16:48.507Z,16
2017-06-21T05:18:07.208Z,16.1
2017-06-21T05:19:25.873Z,16.1
2017-06-21T05:20:44.583Z,16.2
2017-06-21T05:22:03.252Z,16.2
2017-06-21T05:23:21.947Z,16.2
2017-06-21T05:24:40.649Z,16.3
2017-06-21T05:25:59.397Z,16.3
2017-06-21T05:27:18.102Z,16.3
2017-06-21T05:28:36.776Z,16.4
2017-06-21T05:29:55.449Z,16.4
2017-06-21T05:31:14.189Z,16.5
2017-06-21T05:32:32.855Z,16.5
2017-06-21T05:33:51.563Z,16.5
2017-06-21T05:35:10.232Z,16.5
2017-06-21T05:36:28.983Z,16.6
2017-06-21T05:37:47.650Z,16.6
2017-06-21T05:39:06.350Z,16.7
2017-06-21T05:40:25.045Z,16.7
2017-06-21T05:41:43.727Z,16.8
2017-06-21T05:43:02.449Z,16.8
2017-06-21T05:44:21.128Z,16.8
2017-06-21T05:45:39.800Z,16.9
2017-06-21T05:46:58.499Z,16.9
2017-06-21T05:48:17.181Z,17
2017-06-21T05:49:35.851Z,17
2017-06-21T05:50:54.567Z,17.1
2017-06-21T05:52:13.260Z,17.1
2017-06-21T05:53:31.929Z,17.1
2017-06-21T05:54:50.596Z,17.2
2017-06-21T05:56:09.319Z,17.2
2017-06-21T05:57:28.071Z,17.2
2017-06-21T05:58:46.747Z,17.2
2017-06-21T06:00:05.429Z,17.3
2017-06-21T06:01:24.145Z,17.3
2017-06-21T06:02:42.873Z,17.4
2017-06-21T06:04:01.596Z,17.4
2017-06-21T06:05:20.326Z,17.4
2017-06-21T06:06:39.028Z,17.4
2017-06-21T06:07:57.706Z,17.4
2017-06-21T06:09:16.382Z,17.5
2017-06-21T06:10:35.048Z,17.6
2017-06-21T06:11:53.755Z,17.6
2017-06-21T06:13:12.444Z,17.7
2017-06-21T06:14:31.149Z,17.8
2017-06-21T06:15:49.823Z,17.8
2017-06-21T06:17:08.542Z,17.9
2017-06-21T06:18:27.220Z,17.9
2017-06-21T06:19:45.943Z,17.9
2017-06-21T06:21:04.663Z,18
2017-06-21T06:22:23.330Z,18.1
2017-06-21T06:23:42.062Z,18.1
2017-06-21T06:25:00.732Z,18.2
2017-06-21T06:26:19.414Z,18.2
2017-06-21T06:27:38.139Z,18.3
2017-06-21T06:28:56.822Z,18.3
2017-06-21T06:30:15.492Z,18.4
2017-06-21T06:31:34.173Z,18.4
2017-06-21T06:32:52.841Z,18.4
2017-06-21T06:34:11.585Z,18.5
2017-06-21T06:35:30.248Z,18.5
2017-06-21T06:36:48.940Z,18.6
2017-06-21T06:38:07.605Z,18.5
2017-06-21T06:39:26.289Z,18.5
2017-06-21T06:40:45.005Z,18.6
2017-06-21T06:42:03.682Z,18.7
2017-06-21T06:43:22.430Z,18.7
2017-06-21T06:44:41.157Z,18.7
2017-06-21T06:45:59.827Z,18.8
2017-06-21T06:47:18.518Z,18.8
2017-06-21T06:48:37.197Z,18.8
2017-06-21T06:49:55.868Z,18.9
2017-06-21T06:51:14.562Z,19
2017-06-21T06:52:33.229Z,19
2017-06-21T06:53:51.901Z,19.1
2017-06-21T06:55:10.647Z,19.1
2017-06-21T06:56:29.326Z,19.1
2017-06-21T06:57:48.000Z,19.1
2017-06-21T06:59:06.741Z,19.2
2017-06-21T07:00:25.415Z,19.3
2017-06-21T07:01:44.138Z,19.4
2017-06-21T07:03:02.808Z,19.5
2017-06-21T07:04:21.472Z,19.6
2017-06-21T07:05:40.167Z,19.6
2017-06-21T07:06:58.888Z,19.7
2017-06-21T07:08:17.561Z,19.7
2017-06-21T07:09:36.237Z,19.8
2017-06-21T07:10:54.983Z,19.9
2017-06-21T07:12:13.669Z,19.9
2017-06-21T07:13:32.401Z,20
2017-06-21T07:14:51.082Z,20
2017-06-21T07:16:09.777Z,20
2017-06-21T07:17:28.502Z,20
2017-06-21T07:18:47.174Z,20
2017-06-21T07:20:05.841Z,20
2017-06-21T07:21:24.573Z,20.1
2017-06-21T07:22:43.249Z,20.3
2017-06-21T07:24:01.930Z,20.3
2017-06-21T07:25:20.607Z,20.4
2017-06-21T07:26:39.332Z,20.4
2017-06-21T07:27:58.034Z,20.5
2017-06-21T07:29:16.697Z,20.5
2017-06-21T07:30:35.404Z,20.6
2017-06-21T07:31:54.138Z,20.6
2017-06-21T07:33:12.807Z,20.6
2017-06-21T07:34:31.485Z,20.6
2017-06-21T07:35:50.162Z,20.6
2017-06-21T07:37:08.934Z,20.6
2017-06-21T07:38:27.605Z,20.6
2017-06-21T07:39:46.282Z,20.6
2017-06-21T07:41:05.008Z,20.7
2017-06-21T07:42:23.721Z,20.8
2017-06-21T07:43:42.422Z,20.8
2017-06-21T07:45:01.093Z,20.9
2017-06-21T07:46:19.775Z,20.9
2017-06-21T07:47:38.459Z,20.9
2017-06-21T07:48:57.187Z,20.9
2017-06-21T07:50:15.881Z,20.9
2017-06-21T07:51:34.574Z,20.9
2017-06-21T07:52:53.310Z,20.9
2017-06-21T07:54:11.982Z,21
2017-06-21T07:55:30.707Z,21
2017-06-21T07:56:49.377Z,21.1
2017-06-21T07:58:08.080Z,21.2
2017-06-21T07:59:26.745Z,21.3
2017-06-21T08:00:45.417Z,21.3
2017-06-21T08:02:04.121Z,21.4
2017-06-21T08:03:22.842Z,21.3
2017-06-21T08:04:41.565Z,21.4
2017-06-21T08:06:00.289Z,21.3
2017-06-21T08:07:18.983Z,21.4
2017-06-21T08:08:37.736Z,21.4
2017-06-21T08:09:56.406Z,21.5
2017-06-21T08:11:15.083Z,21.6
2017-06-21T08:12:33.755Z,21.7
2017-06-21T08:13:52.440Z,21.7
2017-06-21T08:15:11.113Z,21.7
2017-06-21T08:16:29.787Z,21.7
2017-06-21T08:17:48.472Z,21.6
2017-06-21T08:19:07.172Z,21.6
2017-06-21T08:20:25.864Z,21.6
2017-06-21T08:21:44.576Z,21.6
2017-06-21T08:23:03.250Z,21.7
2017-06-21T08:24:21.931Z,21.7
2017-06-21T08:25:40.603Z,21.8
2017-06-21T08:26:59.274Z,21.8
2017-06-21T08:28:17.953Z,21.9
2017-06-21T08:29:36.697Z,22
2017-06-21T08:30:55.407Z,22.1
2017-06-21T08:32:14.124Z,22.2
2017-06-21T08:33:32.842Z,22.2
2017-06-21T08:34:51.574Z,22.1
2017-06-21T08:36:10.246Z,22.1
2017-06-21T08:37:29.002Z,22.1
2017-06-21T08:38:47.674Z,22.1
2017-06-21T08:40:06.421Z,22.1
2017-06-21T08:41:25.113Z,22.2
2017-06-21T08:42:43.793Z,22.3
2017-06-21T08:44:02.461Z,22.4
2017-06-21T08:45:21.192Z,22.5
2017-06-21T08:46:39.870Z,22.6
2017-06-21T08:47:58.567Z,22.6
2017-06-21T08:49:17.300Z,22.6
2017-06-21T08:50:35.987Z,22.5
2017-06-21T08:51:54.656Z,22.5
2017-06-21T08:53:13.324Z,22.5
2017-06-21T08:54:32.002Z,22.6
2017-06-21T08:55:50.686Z,22.7
2017-06-21T08:57:09.399Z,22.8
2017-06-21T08:58:28.076Z,22.7
2017-06-21T08:59:46.790Z,22.7
2017-06-21T09:01:05.482Z,22.7
2017-06-21T09:02:24.171Z,22.7
2017-06-21T09:03:42.836Z,22.8
2017-06-21T09:05:01.560Z,22.8
2017-06-21T09:06:20.260Z,22.7
2017-06-21T09:07:38.960Z,22.7
2017-06-21T09:08:57.631Z,22.7
2017-06-21T09:10:16.347Z,22.8
2017-06-21T09:11:35.049Z,22.8
2017-06-21T09:12:53.716Z,22.9
2017-06-21T09:14:12.464Z,22.9
2017-06-21T09:15:31.143Z,22.9
2017-06-21T09:16:49.818Z,22.9
2017-06-21T09:18:08.508Z,22.9
2017-06-21T09:19:27.175Z,22.9
2017-06-21T09:20:45.862Z,22.9
2017-06-21T09:22:04.587Z,22.9
2017-06-21T09:23:23.312Z,23.1
2017-06-21T09:24:41.980Z,23.1
2017-06-21T09:26:00.658Z,23.2
2017-06-21T09:27:19.388Z,23.3
2017-06-21T09:28:38.059Z,23.3
2017-06-21T09:29:56.761Z,23.4
2017-06-21T09:31:15.430Z,23.4
2017-06-21T09:32:34.158Z,23.3
2017-06-21T09:33:52.827Z,23.3
2017-06-21T09:35:11.500Z,23.3
2017-06-21T09:36:30.178Z,23.4
2017-06-21T09:37:48.934Z,23.5
2017-06-21T09:39:07.608Z,23.5
2017-06-21T09:40:26.335Z,23.6
2017-06-21T09:41:45.050Z,23.6
2017-06-21T09:43:03.738Z,23.6
2017-06-21T09:44:22.492Z,23.7
2017-06-21T09:45:41.162Z,23.9
2017-06-21T09:46:59.833Z,23.9
2017-06-21T09:48:18.512Z,23.8
2017-06-21T09:49:37.175Z,23.8
2017-06-21T09:50:55.841Z,23.7
2017-06-21T09:52:14.594Z,23.7
2017-06-21T09:53:33.335Z,23.8
2017-06-21T09:54:52.005Z,23.9
2017-06-21T09:56:10.674Z,24
2017-06-21T09:57:29.394Z,24.1
2017-06-21T09:58:48.095Z,24.2
2017-06-21T10:00:06.821Z,24.3
2017-06-21T10:01:25.495Z,24.3
2017-06-21T10:02:44.177Z,24.3
2017-06-21T10:04:02.854Z,24.4
2017-06-21T10:05:21.577Z,24.5
2017-06-21T10:06:40.281Z,24.5
2017-06-21T10:07:58.984Z,24.5
2017-06-21T10:09:17.716Z,24.4
2017-06-21T10:10:36.390Z,24.4
2017-06-21T10:11:55.066Z,24.4
2017-06-21T10:13:13.733Z,24.4
2017-06-21T10:14:32.450Z,24.5
2017-06-21T10:15:51.158Z,24.5
2017-06-21T10:17:09.881Z,24.6
2017-06-21T10:18:28.566Z,24.6
2017-06-21T10:19:47.253Z,24.5
2017-06-21T10:21:05.979Z,24.5
2017-06-21T10:22:24.677Z,24.5
2017-06-21T10:23:43.370Z,24.5
2017-06-21T10:25:02.079Z,24.5
2017-06-21T10:26:20.764Z,24.7
2017-06-21T10:27:39.431Z,24.7
2017-06-21T10:28:58.100Z,24.7
2017-06-21T10:30:16.841Z,24.8
2017-06-21T10:31:35.561Z,24.8
2017-06-21T10:32:54.234Z,25
2017-06-21T10:34:12.965Z,25.1
2017-06-21T10:35:31.646Z,25.1
2017-06-21T10:36:50.380Z,25
2017-06-21T10:38:09.079Z,25.1
2017-06-21T10:39:27.773Z,25.1
2017-06-21T10:40:46.476Z,25.2
2017-06-21T10:42:05.152Z,25.4
2017-06-21T10:43:23.841Z,25.4
2017-06-21T10:44:42.560Z,25.5
2017-06-21T10:46:01.237Z,25.6
2017-06-21T10:47:19.909Z,25.6
2017-06-21T10:48:38.576Z,25.7
2017-06-21T10:49:57.302Z,25.8
2017-06-21T10:51:16.050Z,25.8
2017-06-21T10:52:34.727Z,25.9
2017-06-21T10:53:53.402Z,25.9
2017-06-21T10:55:12.080Z,26.1
2017-06-21T10:56:30.776Z,26.2
2017-06-21T10:57:49.505Z,26.3
2017-06-21T10:59:08.229Z,26.3
2017-06-21T11:00:26.906Z,26.2
2017-06-21T11:01:45.578Z,26.3
2017-06-21T11:03:04.248Z,26.4
2017-06-21T11:04:22.963Z,26.4
2017-06-21T11:05:41.671Z,26.2
2017-06-21T11:07:00.374Z,26.2
2017-06-21T11:08:19.100Z,26.4
2017-06-21T11:09:37.772Z,26.5
2017-06-21T11:10:56.448Z,26.4
2017-06-21T11:12:15.146Z,26.4
2017-06-21T11:13:33.835Z,26.5
2017-06-21T11:14:52.507Z,26.6
2017-06-21T11:16:11.230Z,26.6
2017-06-21T11:17:29.923Z,26.6
2017-06-21T11:18:48.636Z,26.7
2017-06-21T11:20:07.362Z,26.8
2017-06-21T11:21:26.031Z,26.8
2017-06-21T11:22:44.777Z,26.9
2017-06-21T11:24:03.459Z,26.9
2017-06-21T11:25:22.176Z,27
2017-06-21T11:26:40.871Z,27
2017-06-21T11:27:59.596Z,27.2
2017-06-21T11:29:18.302Z,27.3
2017-06-21T11:30:36.976Z,27.4
2017-06-21T11:31:55.648Z,27.5
2017-06-21T11:33:14.342Z,27.6
2017-06-21T11:34:33.012Z,27.6
2017-06-21T11:35:51.678Z,27.5
2017-06-21T11:37:10.344Z,27.5
2017-06-21T11:38:29.059Z,27.6
2017-06-21T11:39:47.741Z,27.6
2017-06-21T11:41:06.422Z,27.7
2017-06-21T11:42:25.148Z,27.8
2017-06-21T11:43:43.856Z,27.9
2017-06-21T11:45:02.578Z,27.9
2017-06-21T11:46:21.299Z,27.9
2017-06-21T11:47:39.972Z,28
2017-06-21T11:48:58.674Z,28
2017-06-21T11:50:17.398Z,27.9
2017-06-21T11:51:36.090Z,28.1
2017-06-21T11:52:54.805Z,28.4
2017-06-21T11:54:13.482Z,29.1
2017-06-21T11:55:32.150Z,29.9
2017-06-21T11:56:50.815Z,31
2017-06-21T11:58:09.554Z,32.4
2017-06-21T11:59:28.239Z,34.4
2017-06-21T12:00:46.924Z,34.8
2017-06-21T12:02:05.642Z,35.1
2017-06-21T12:03:24.338Z,35.3
2017-06-21T12:04:43.018Z,35.6
2017-06-21T12:06:01.690Z,35.9
2017-06-21T12:07:20.403Z,36.1
2017-06-21T12:08:39.120Z,36.3
2017-06-21T12:09:57.829Z,36.3
2017-06-21T12:11:16.501Z,36.3
2017-06-21T12:12:35.229Z,36.4
2017-06-21T12:13:53.936Z,36.5
2017-06-21T12:15:12.632Z,36.4
2017-06-21T12:16:31.312Z,36.5
2017-06-21T12:17:49.995Z,36.5
2017-06-21T12:19:08.722Z,36.7
2017-06-21T12:20:27.447Z,36.8
2017-06-21T12:21:46.160Z,36.9
2017-06-21T12:23:04.840Z,36.9
2017-06-21T12:24:23.561Z,37
2017-06-21T12:25:42.230Z,37.1
2017-06-21T12:27:00.900Z,37.1
2017-06-21T12:28:19.587Z,37.2
2017-06-21T12:29:38.258Z,37.2
2017-06-21T12:30:56.938Z,37.2
2017-06-21T12:32:15.615Z,37.3
2017-06-21T12:33:34.295Z,37.3
2017-06-21T12:34:52.966Z,37.3
2017-06-21T12:36:11.640Z,37.3
2017-06-21T12:37:30.316Z,37.3
2017-06-21T12:38:49.021Z,37.3
2017-06-21T12:40:07.727Z,37.3
2017-06-21T12:41:26.400Z,37.3
2017-06-21T12:42:45.126Z,37.3
2017-06-21T12:44:03.816Z,37.4
2017-06-21T12:45:22.529Z,37.4
2017-06-21T12:46:41.223Z,37.5
2017-06-21T12:47:59.888Z,37.5
2017-06-21T12:49:18.570Z,37.4
2017-06-21T12:50:37.275Z,37.3
2017-06-21T12:51:55.973Z,37.1
2017-06-21T12:53:14.645Z,37
2017-06-21T12:54:33.333Z,36.8
2017-06-21T12:55:52.005Z,36.7
2017-06-21T12:57:10.698Z,36.6
2017-06-21T12:58:29.368Z,36.6
2017-06-21T12:59:48.037Z,36.8
2017-06-21T13:01:06.752Z,36.9
2017-06-21T13:02:25.458Z,36.7
2017-06-21T13:03:44.169Z,36.8
2017-06-21T13:05:02.859Z,36.9
2017-06-21T13:06:21.564Z,37
2017-06-21T13:07:40.267Z,36.8
2017-06-21T13:08:58.962Z,36.7
2017-06-21T13:10:17.632Z,36.7
2017-06-21T13:11:36.343Z,36.7
2017-06-21T13:12:55.028Z,36.9
2017-06-21T13:14:13.723Z,37.1
2017-06-21T13:15:32.461Z,37.2
2017-06-21T13:16:51.126Z,37.2
2017-06-21T13:18:09.817Z,37
2017-06-21T13:19:28.537Z,36.8
2017-06-21T13:20:47.212Z,36.8
2017-06-21T13:22:05.906Z,37
2017-06-21T13:23:24.605Z,37.2
2017-06-21T13:24:43.284Z,37.4
2017-06-21T13:26:01.956Z,37.4
2017-06-21T13:27:20.622Z,37.5
2017-06-21T13:28:39.325Z,37.3
2017-06-21T13:29:58.006Z,37.3
2017-06-21T13:31:16.678Z,37.2
2017-06-21T13:32:35.404Z,37.2
2017-06-21T13:33:54.128Z,37.2
2017-06-21T13:35:12.808Z,37.2
2017-06-21T13:36:31.492Z,37.1
2017-06-21T13:37:50.170Z,37.1
2017-06-21T13:39:08.915Z,37.1
2017-06-21T13:40:27.613Z,37.1
2017-06-21T13:41:46.285Z,37
2017-06-21T13:43:04.959Z,36.8
2017-06-21T13:44:23.637Z,36.8
2017-06-21T13:45:42.387Z,36.8
2017-06-21T13:47:01.056Z,36.8
2017-06-21T13:48:19.787Z,36.8
2017-06-21T13:49:38.492Z,36.9
2017-06-21T13:50:57.173Z,36.8
2017-06-21T13:52:15.848Z,36.7
2017-06-21T13:53:34.564Z,36.7
2017-06-21T13:54:53.313Z,36.5
2017-06-21T13:56:12.017Z,36.5
2017-06-21T13:57:30.695Z,36.6
2017-06-21T13:58:49.370Z,36.6
2017-06-21T14:00:08.047Z,36.6
2017-06-21T14:01:26.746Z,36.3
2017-06-21T14:02:45.419Z,36.2
2017-06-21T14:04:04.114Z,35.9
2017-06-21T14:05:22.790Z,35.8
2017-06-21T14:06:41.495Z,35.8
2017-06-21T14:08:00.164Z,36
2017-06-21T14:09:18.909Z,36.1
2017-06-21T14:10:37.604Z,36.2
2017-06-21T14:11:56.289Z,36.3
2017-06-21T14:13:14.950Z,36.6
2017-06-21T14:14:33.611Z,36.8
2017-06-21T14:15:52.340Z,36.9
2017-06-21T14:17:11.041Z,36.9
2017-06-21T14:18:29.754Z,36.9
2017-06-21T14:19:48.449Z,36.8
2017-06-21T14:21:07.184Z,36.9
2017-06-21T14:22:25.911Z,36.9
2017-06-21T14:23:44.624Z,37
2017-06-21T14:25:03.329Z,37.1
2017-06-21T14:26:22.032Z,37.2
2017-06-21T14:27:40.697Z,37.2
2017-06-21T14:28:59.366Z,37.2
2017-06-21T14:30:18.032Z,37.2
2017-06-21T14:31:36.755Z,37.2
2017-06-21T14:32:55.454Z,37.2
2017-06-21T14:34:14.179Z,37.1
2017-06-21T14:35:32.853Z,36.8
2017-06-21T14:36:51.568Z,36.5
2017-06-21T14:38:10.242Z,36.1
2017-06-21T14:39:28.942Z,35.8
2017-06-21T14:40:47.672Z,35.5
2017-06-21T14:42:06.391Z,35.3
2017-06-21T14:43:25.084Z,35.2
2017-06-21T14:44:43.800Z,35.1
2017-06-21T14:46:02.468Z,35
2017-06-21T14:47:21.154Z,34.8
2017-06-21T14:48:39.851Z,34.8
2017-06-21T14:49:58.558Z,34.7
2017-06-21T14:51:17.272Z,34.7
2017-06-21T14:52:35.943Z,34.7
2017-06-21T14:53:54.610Z,34.7
2017-06-21T14:55:13.307Z,34.6
2017-06-21T14:56:31.977Z,34.6
2017-06-21T14:57:50.670Z,34.6
2017-06-21T14:59:09.339Z,34.5
2017-06-21T15:00:28.011Z,34.5
2017-06-21T15:01:46.700Z,34.5
2017-06-21T15:03:05.401Z,34.5
2017-06-21T15:04:24.143Z,34.5
2017-06-21T15:05:42.829Z,34.5
2017-06-21T15:07:01.501Z,34.5
2017-06-21T15:08:20.174Z,34.4
2017-06-21T15:09:38.869Z,34.4
2017-06-21T15:10:57.563Z,34.3
2017-06-21T15:12:16.234Z,34.2
2017-06-21T15:13:34.930Z,33.9
2017-06-21T15:14:53.643Z,33.5
2017-06-21T15:16:12.388Z,33.3
2017-06-21T15:17:31.085Z,33.2
2017-06-21T15:18:49.762Z,33.1
2017-06-21T15:20:08.454Z,32.8
2017-06-21T15:21:27.134Z,32.8
2017-06-21T15:22:45.808Z,32.6
2017-06-21T15:24:04.492Z,32.4
2017-06-21T15:25:23.168Z,32.2
2017-06-21T15:26:41.897Z,32.2
2017-06-21T15:28:00.574Z,32
2017-06-21T15:29:19.267Z,31.8
2017-06-21T15:30:37.932Z,31.6
2017-06-21T15:31:56.600Z,31.4
2017-06-21T15:33:15.322Z,31.6
2017-06-21T15:34:34.064Z,31.8
2017-06-21T15:35:52.764Z,31.7
2017-06-21T15:37:11.439Z,31.7
2017-06-21T15:38:30.140Z,31.9
2017-06-21T15:39:48.855Z,32.8
2017-06-21T15:41:07.559Z,33.6
2017-06-21T15:42:26.224Z,33.5
2017-06-21T15:43:44.896Z,32.8
2017-06-21T15:45:03.579Z,32.8
2017-06-21T15:46:22.301Z,33.8
2017-06-21T15:47:40.978Z,34.5
2017-06-21T15:48:59.646Z,34.7
2017-06-21T15:50:18.350Z,34.6
2017-06-21T15:51:37.059Z,34.3
2017-06-21T15:52:55.771Z,33.7
2017-06-21T15:54:14.491Z,33.1
2017-06-21T15:55:33.162Z,33.2
2017-06-21T15:56:51.840Z,34.3
2017-06-21T15:58:10.555Z,34.5
2017-06-21T15:59:29.242Z,35
2017-06-21T16:00:47.966Z,35.4
2017-06-21T16:02:06.636Z,35.6
2017-06-21T16:03:25.361Z,35.8
2017-06-21T16:04:44.094Z,36
2017-06-21T16:06:02.793Z,36.1
2017-06-21T16:07:21.467Z,36.2
2017-06-21T16:08:40.163Z,36.2
2017-06-21T16:09:58.887Z,36.1
2017-06-21T16:11:17.607Z,35.9
2017-06-21T16:12:36.337Z,35.9
2017-06-21T16:13:55.064Z,36
2017-06-21T16:15:13.740Z,36.1
2017-06-21T16:16:32.461Z,36.1
2017-06-21T16:17:51.131Z,36.1
2017-06-21T16:19:09.806Z,36.1
2017-06-21T16:20:28.477Z,36.1
2017-06-21T16:21:47.190Z,36.2
2017-06-21T16:23:05.880Z,36.2
2017-06-21T16:24:24.560Z,36.1
2017-06-21T16:25:43.253Z,35.9
2017-06-21T16:27:01.956Z,35.6
2017-06-21T16:28:20.632Z,35.4
2017-06-21T16:29:39.313Z,35.3
2017-06-21T16:30:57.982Z,35.1
2017-06-21T16:32:16.683Z,35.1
2017-06-21T16:33:35.350Z,35.3
2017-06-21T16:34:54.047Z,35.4
2017-06-21T16:36:12.714Z,35.4
2017-06-21T16:37:31.458Z,35.5
2017-06-21T16:38:50.126Z,35.3
2017-06-21T16:40:08.846Z,35.2
2017-06-21T16:41:27.555Z,35.2
2017-06-21T16:42:46.266Z,35
2017-06-21T16:44:04.965Z,35.1
2017-06-21T16:45:23.666Z,35.1
2017-06-21T16:46:42.395Z,35.2
2017-06-21T16:48:01.070Z,35.3
2017-06-21T16:49:19.735Z,35.4
2017-06-21T16:50:38.410Z,35.4
2017-06-21T16:51:57.080Z,35.2
2017-06-21T16:53:15.845Z,35
2017-06-21T16:54:34.557Z,34.8
2017-06-21T16:55:53.276Z,34.6
2017-06-21T16:57:11.955Z,34.5
2017-06-21T16:58:30.630Z,34.5
2017-06-21T16:59:49.303Z,34.6
2017-06-21T17:01:08.018Z,34.7
2017-06-21T17:02:26.742Z,34.7
2017-06-21T17:03:45.443Z,34.7
2017-06-21T17:05:04.135Z,34.7
2017-06-21T17:06:22.807Z,34.8
2017-06-21T17:07:41.477Z,35.1
2017-06-21T17:09:00.183Z,35.3
2017-06-21T17:10:18.937Z,35.3
2017-06-21T17:11:37.599Z,35.3
2017-06-21T17:12:56.277Z,35.4
2017-06-21T17:14:14.953Z,35.5
2017-06-21T17:15:33.616Z,35.5
2017-06-21T17:16:52.345Z,35.4
2017-06-21T17:18:11.015Z,35.4
2017-06-21T17:19:29.751Z,35.3
2017-06-21T17:20:48.416Z,35.1
2017-06-21T17:22:07.134Z,35
2017-06-21T17:23:25.805Z,35
2017-06-21T17:24:44.508Z,35.3
2017-06-21T17:26:03.175Z,35
2017-06-21T17:27:21.885Z,34.9
2017-06-21T17:28:40.565Z,34.7
2017-06-21T17:29:59.279Z,34.6
2017-06-21T17:31:17.960Z,34.6
2017-06-21T17:32:36.690Z,34.5